Погода Ла-Каняда-Флинтриджна неделю

Калифорния, США

01 - 07 сентября
  • 01сентября
    Сегодня
    +16°
    +27°
    Ясно и безоблачно
    ВремяПогодаТемператураВлажностьДавлениеВетер, м/сВероятность осадков
    02:00Ясно и безоблачно+18°C72 %730 мм0.7 м/с2 %
    05:00Ясно и безоблачно+15°C45 %729 мм0.8 м/с2 %
    08:00Ясно и безоблачно+18°C79 %730 мм1.2 м/с2 %
    11:00Ясно и безоблачно+22°C43 %731 мм2.6 м/с2 %
    14:00Ясно и безоблачно+26°C28 %731 мм3.1 м/с2 %
    17:00Ясно и безоблачно+25°C29 %730 мм2.1 м/с2 %
    20:00Ясно и безоблачно+20°C50 %729 мм0.9 м/с2 %
    23:00Ясно и безоблачно+18°C61 %730 мм0.9 м/с2 %
  • 02сентября
    Среда
    +16°
    +27°
    Ясно и безоблачно
    ВремяПогодаТемператураВлажностьДавлениеВетер, м/сВероятность осадков
    02:00Ясно и безоблачно+17°C54 %730 мм1.1 м/с2 %
    05:00Ясно и безоблачно+17°C30 %730 мм0.8 м/с2 %
    08:00Ясно и безоблачно+19°C18 %731 мм0.8 м/с2 %
    11:00Ясно и безоблачно+22°C43 %731 мм2.4 м/с2 %
    14:00Ясно и безоблачно+26°C30 %731 мм2.9 м/с2 %
    17:00Ясно и безоблачно+26°C34 %729 мм2.5 м/с2 %
    20:00Ясно и безоблачно+20°C42 %729 мм0.3 м/с2 %
    23:00Ясно и безоблачно+19°C50 %730 мм0.7 м/с2 %
  • 03сентября
    Четверг
    +16°
    +27°
    Ясно и безоблачно
    ВремяПогодаТемператураВлажностьДавлениеВетер, м/сВероятность осадков
    02:00Ясно и безоблачно+18°C53 %729 мм0.8 м/с2 %
    05:00Ясно и безоблачно+17°C33 %729 мм0.3 м/с2 %
    08:00Ясно и безоблачно+19°C19 %730 мм1.1 м/с2 %
    11:00Ясно и безоблачно+22°C44 %730 мм2.5 м/с2 %
    14:00Ясно и безоблачно+26°C32 %729 мм3.5 м/с2 %
    17:00Ясно и безоблачно+25°C46 %728 мм3.0 м/с2 %
    20:00Ясно и безоблачно+20°C72 %727 мм1.3 м/с2 %
    23:00Ясно и безоблачно+18°C79 %728 мм1.3 м/с2 %
  • 04сентября
    Пятница
    +18°
    +27°
    Ясно и безоблачно
    ВремяПогодаТемператураВлажностьДавлениеВетер, м/сВероятность осадков
    02:00Ясно и безоблачно+17°C84 %728 мм0.6 м/с2 %
    05:00Ясно и безоблачно+17°C52 %728 мм0.8 м/с2 %
    08:00Ясно и безоблачно+19°C47 %729 мм0.3 м/с2 %
    11:00Ясно и безоблачно+22°C52 %729 мм2.7 м/с2 %
    14:00Ясно и безоблачно+26°C28 %729 мм3.3 м/с2 %
    17:00Ясно и безоблачно+25°C38 %728 мм2.8 м/с2 %
    20:00Ясно и безоблачно+20°C59 %728 мм1.0 м/с2 %
    23:00Ясно и безоблачно+19°C59 %729 мм0.9 м/с2 %
  • 05сентября
    Суббота
    +19°
    +29°
    Ясно и безоблачно
    ВремяПогодаТемператураВлажностьДавлениеВетер, м/сВероятность осадков
    02:00Ясно и безоблачно+19°C41 %729 мм0.8 м/с2 %
    05:00Ясно и безоблачно+20°C25 %728 мм0.3 м/с6 %
    08:00Ясно и безоблачно+22°C18 %730 мм0.4 м/с11 %
    11:00Ясно и безоблачно+25°C16 %730 мм2.3 м/с14 %
    14:00Ясно и безоблачно+28°C16 %729 мм3.9 м/с21 %
    17:00Ясно и безоблачно+27°C26 %729 мм2.8 м/с21 %
    20:00Ясно и безоблачно+22°C35 %729 мм0.3 м/с20 %
    23:00Ясно и безоблачно+21°C38 %729 мм0.8 м/с22 %
  • 06сентября
    Воскресенье
    +18°
    +27°
    Ясно и безоблачно
    ВремяПогодаТемператураВлажностьДавлениеВетер, м/сВероятность осадков
    05:00Практически безоблачно+20°C77 %728 мм0.3 м/с37 %
    11:00Ясно и безоблачно+25°C43 %730 мм2.5 м/с42 %
    17:00Ясно и безоблачно+26°C28 %728 мм2.8 м/с41 %
    23:00Ясно и безоблачно+21°C51 %729 мм1.4 м/с27 %
  • 07сентября
    Понедельник
    +17°
    +30°
    Ясно и безоблачно
    ВремяПогодаТемператураВлажностьДавлениеВетер, м/сВероятность осадков
    05:00Ясно и безоблачно+19°C58 %728 мм1.4 м/с21 %
    11:00Ясно и безоблачно+26°C30 %729 мм2.2 м/с26 %
    17:00Ясно и безоблачно+27°C29 %728 мм2.9 м/с30 %
    23:00Ясно и безоблачно+20°C55 %728 мм1.4 м/с20 %
Мы используем cookies
Соглашаюсь